Flight Track Log - Related Links

Times and Time Zones

All times are in EDT time to prevent confusion due to time zone crossing. See the SWA881 flight status page for this flight to view local times or setup timezone preferences in your user account.

Time Position Orientation Groundspeed Altitude Reporting Facility
EDT Latitude Longitude Course Direction KTS MPH feet Rate Location/Type
Sat 08:51:03 PM 35.0033 -106.5325 138° Southeast 223 257 7,900  Level Albuquerque Center
Sat 08:51:20 PM 34.9978 -106.5239 128° Southeast 215 247 8,200 2,361 Climbing Albuquerque Center
Sat 08:52:04 PM 34.9344 -106.5167 175° South 284 327 10,300 2,459 Climbing Albuquerque Center
Sat 08:52:21 PM 34.9244 -106.5144 170° South 255 293 10,700 2,700 Climbing Albuquerque Center
Sat 08:53:04 PM 34.8528 -106.5017 172° South 333 383 13,000 3,387 Climbing Albuquerque Center
Sat 08:53:23 PM 34.8358 -106.4681 122° Southeast 334 384 14,200 3,541 Climbing Albuquerque Center
Sat 08:54:05 PM 34.8225 -106.3906 102° East 377 434 16,600 3,443 Climbing Albuquerque Center
Sat 08:54:24 PM 34.8136 -106.3489 105° East 358 412 17,700 2,850 Climbing Albuquerque Center
Sat 08:55:25 PM 34.7842 -106.2269 106° East 372 428 20,400 3,049 Climbing Albuquerque Center
Sat 08:56:26 PM 34.7706 -106.0889 97° East 386 444 23,900 2,951 Climbing Albuquerque Center
Sat 08:57:27 PM 34.7531 -105.9550 99° East 395 455 26,400 2,361 Climbing Albuquerque Center
Sat 08:58:28 PM 34.7189 -105.8158 107° East 418 481 28,700 2,195 Climbing Albuquerque Center
Sat 08:59:30 PM 34.6858 -105.6739 106° East 429 494 30,900 1,854 Climbing Albuquerque Center
Sat 09:00:31 PM 34.6525 -105.5283 106° East 439 505 32,500 1,820 Climbing Albuquerque Center
Sat 09:01:32 PM 34.6456 -105.3761 93° East 447 514 34,600 1,820 Climbing Albuquerque Center
Sat 09:02:33 PM 34.6383 -105.2242 93° East 448 516 36,200 1,377 Climbing Albuquerque Center
Sat 09:03:34 PM 34.6303 -105.0694 94° East 453 521 37,400 1,279 Climbing Albuquerque Center
Sat 09:04:35 PM 34.6217 -104.9106 94° East 464 534 38,800 1,426 Climbing Albuquerque Center
Sat 09:05:36 PM 34.6131 -104.7539 94° East 463 533 40,300 1,033 Climbing Albuquerque Center
Sat 09:06:37 PM 34.6053 -104.5983 93° East 461 531 40,900 344 Climbing Albuquerque Center
Sat 09:07:38 PM 34.5972 -104.4397 93° East 467 537 41,000 49 Climbing Albuquerque Center
Sat 09:08:40 PM 34.5853 -104.2503 94° East 478 550 41,000  Level Albuquerque Center
Sat 09:09:41 PM 34.5758 -104.0897 94° East 478 550 41,000  Level Albuquerque Center
Sat 09:10:42 PM 34.5667 -103.9294 94° East 476 548 41,000  Level Albuquerque Center
Sat 09:11:43 PM 34.5569 -103.7683 94° East 476 548 41,000  Level Albuquerque Center
Sat 09:12:44 PM 34.5472 -103.6072 94° East 477 549 41,000  Level Albuquerque Center
Sat 09:13:45 PM 34.5367 -103.4456 94° East 478 550 41,000  Level Albuquerque Center
Sat 09:14:46 PM 34.5258 -103.2836 95° East 480 552 41,000  Level Albuquerque Center
Sat 09:15:47 PM 34.5153 -103.1208 94° East 481 554 41,000  Level Albuquerque Center
Sat 09:16:48 PM 34.5031 -102.9592 95° East 480 552 41,000  Level Albuquerque Center
Sat 09:17:49 PM 34.4914 -102.7906 95° East 480 552 41,000  Level Albuquerque Center
Sat 09:18:50 PM 34.4739 -102.6300 97° East 481 554 41,000  Level Albuquerque Center
Sat 09:19:51 PM 34.4569 -102.4703 97° East 482 555 41,000  Level Albuquerque Center
Sat 09:20:52 PM 34.4394 -102.3106 98° East 482 555 41,000  Level Albuquerque Center
Sat 09:21:53 PM 34.4231 -102.1508 97° East 481 554 41,000  Level Albuquerque Center
Sat 09:22:54 PM 34.4058 -101.9919 97° East 481 554 41,000  Level Albuquerque Center
Sat 09:23:55 PM 34.3883 -101.8328 98° East 480 552 41,000  Level Albuquerque Center
Sat 09:24:57 PM 34.3672 -101.6406 98° East 482 555 41,000  Level Albuquerque Center
Sat 09:25:57 PM 34.3503 -101.4819 97° East 481 554 41,000  Level Albuquerque Center
Sat 09:26:58 PM 34.3319 -101.3242 98° East 478 550 41,000  Level Albuquerque Center
Sat 09:27:59 PM 34.3144 -101.1642 97° East 481 554 41,000  Level Albuquerque Center
Sat 09:29:00 PM 34.2947 -101.0067 99° East 479 551 41,000  Level Albuquerque Center
Sat 09:30:06 PM 34.2561 -100.8206 104° East 484 557 41,000  Level Fort Worth Center
Sat 09:31:06 PM 34.2228 -100.6661 105° East 484 557 41,000  Level Fort Worth Center
Sat 09:32:06 PM 34.1892 -100.5092 104° East 484 557 41,000  Level Fort Worth Center
Sat 09:33:06 PM 34.1531 -100.3700 107° East 478 550 41,000  Level Fort Worth Center
Sat 09:34:06 PM 34.1169 -100.2156 106° East 478 550 41,000  Level Fort Worth Center
Sat 09:35:06 PM 34.0806 -100.0614 106° East 478 550 41,000  Level Fort Worth Center
Sat 09:36:06 PM 34.0419 -99.9050 107° East 478 550 41,000  Level Fort Worth Center
Sat 09:37:06 PM 33.9972 -99.7358 108° East 478 550 41,000  Level Fort Worth Center
Sat 09:38:06 PM 33.9542 -99.5844 109° East 478 550 41,000  Level Fort Worth Center
Sat 09:39:06 PM 33.9086 -99.4306 110° East 489 563 41,000 -100 Level Fort Worth Center
Sat 09:40:06 PM 33.8672 -99.2822 109° East 484 557 40,800 -1,200 Descending Fort Worth Center
Sat 09:41:06 PM 33.8256 -99.1336 109° East 473 544 38,600 -2,400 Descending Fort Worth Center
Sat 09:42:06 PM 33.7878 -98.9856 107° East 466 536 36,000 -2,800 Descending Fort Worth Center
Sat 09:43:06 PM 33.7394 -98.8372 111° Southeast 472 543 33,000 -2,850 Descending Fort Worth Center
Sat 09:44:06 PM 33.6953 -98.6842 109° East 472 543 30,300 -2,550 Descending Fort Worth Center
Sat 09:45:06 PM 33.6528 -98.5389 109° East 472 543 27,900 -2,350 Descending Fort Worth Center
Sat 09:46:06 PM 33.6103 -98.3911 109° East 467 537 25,600 -2,300 Descending Fort Worth Center
Sat 09:47:06 PM 33.5672 -98.2561 111° Southeast 457 526 23,300 -2,100 Descending Fort Worth Center
Sat 09:48:06 PM 33.5306 -98.1336 110° East 440 506 21,400 -2,050 Descending Fort Worth Center
Sat 09:49:06 PM 33.4875 -97.9914 110° East 421 484 19,200 -2,000 Descending Fort Worth Center
Sat 09:50:06 PM 33.4544 -97.8789 109° East 410 472 17,400 -2,050 Descending Fort Worth Center
Sat 09:51:06 PM 33.4133 -97.7444 110° East 397 457 15,100 -2,150 Descending Fort Worth Center
Sat 09:52:06 PM 33.3781 -97.6422 112° Southeast 387 445 13,100 -1,900 Descending Fort Worth Center
Sat 09:53:06 PM 33.3072 -97.5550 134° Southeast 364 419 11,300 -1,050 Descending Fort Worth Center
Sat 09:54:06 PM 33.2300 -97.4656 136° Southeast 353 406 11,000 -150 Descending Fort Worth Center
Sat 09:55:06 PM 33.1694 -97.3911 134° Southeast 348 400 11,000  Level Fort Worth Center
Sat 09:56:06 PM 33.0900 -97.3019 137° Southeast 348 400 11,000  Level Fort Worth Center
Sat 09:57:06 PM 33.0294 -97.2300 135° Southeast 348 400 11,000 -300 Level Fort Worth Center
Sat 09:58:06 PM 32.9667 -97.1533 134° Southeast 332 382 10,400 -1,307 Descending Fort Worth Center
Sat 09:58:47 PM 32.9167 -97.1000 138° Southeast 307 353 8,800 -2,118 Descending Dallas / Fort Worth TRACON
Sat 09:59:48 PM 32.8500 -97.0167 134° Southeast 362 417 6,800 -1,983 Descending Dallas / Fort Worth TRACON
Sat 10:00:48 PM 32.8000 -96.9500 132° Southeast 280 322 4,800 -1,850 Descending Dallas / Fort Worth TRACON
Sat 10:01:48 PM 32.7500 -96.8833 132° Southeast 277 319 3,100 -857 Descending Dallas / Fort Worth TRACON
Sat 10:02:54 PM 32.7167 -96.8167 121° Southeast 220 253 3,000 -450 Descending Dallas / Fort Worth TRACON
Sat 10:03:48 PM 32.7333 -96.7667 68° East 177 204 2,200 -397 Descending Dallas / Fort Worth TRACON
Sat 10:04:55 PM 32.7833 -96.7833 344° North 163 188 2,200 -397 Level Dallas / Fort Worth TRACON
Sat 10:05:49 PM 32.8000 -96.8000 320° Northwest 136 157 1,400 -789 Descending Dallas / Fort Worth TRACON
Sat 10:06:49 PM 32.8333 -96.8333 320° Northwest 140 161 700 -700 Descending Dallas / Fort Worth TRACON

Login

Don't have an account? Register now (free) for customized features, flight alerts, and more!